Terminal Aerodrome Forecast
Issued by NWS

Home | Current Version | Previous Version | Text Only | Print | Product List | Glossary On
Versions: 1 2 3 4 5 6 7 8 9 10 11 12 13 14 15 16
756
FTUS46 KSEW 220538
TAFBFI
TAF
KBFI 220538Z 2206/2306 15005KT P6SM VCSH BKN035 OVC050
      TEMPO 2207/2209 -SHRA BKN020 OVC040
     FM221000 00000KT P6SM SCT035 BKN050
     FM221600 12004KT P6SM -RA BKN035 OVC050
     FM222300 16005KT P6SM SCT050 BKN100=

USA.gov is the U.S. government's official web portal to all federal, state and local government web resources and services.